Kiyoyasumaru — JD4054 — position and weather

sailwx.info

Track history (hours):
 
Tides and Currents Weather Stations Pressure Air Temp Water Temp Dewpoint Dewpoint Depression Visibility Wind Speed Wind Dir Waves Ship Positions

Kiyoyasumaru

Last reported at 2017-Oct-17 21:51 UTC. Time now 2017-Oct-17 22:49 UTC.
Position N 35°38' E 139°46'.

Length 148 m; draft 6.7 m.

Type: Cargo ship. MMSI: 431008495.

Date/timePositionNaut miles runAvg speedWind from/ knotsBaromVisibWave heightAir tempDewpointWater temp
2017-Oct-17 21:51N 35°38' E 139°46'1 4.0
2017-Oct-17 21:30N 35°37' E 139°46'510.8
2017-Oct-17 21:00N 35°33' E 139°50'2 4.5
2017-Oct-17 20:28N 35°34' E 139°53'5 9.8
2017-Oct-17 19:58N 35°33' E 139°59'3 0.7
2017-Oct-17 15:29N 35°32' E 140°03'3 6.2
2017-Oct-17 14:57N 35°32' E 139°59'511.4
2017-Oct-17 14:30N 35°30' E 139°53'612.2
2017-Oct-17 14:01N 35°26' E 139°48'611.8
2017-Oct-17 13:31N 35°20' E 139°45'510.9
2017-Oct-17 13:01N 35°15' E 139°47'611.8
2017-Oct-17 12:30N 35°09' E 139°46'612.7
2017-Oct-17 12:00N 35°04' E 139°42'713.3
2017-Oct-17 11:30N 34°59' E 139°37'814.2
2017-Oct-17 10:55N 34°54' E 139°28'227 9.7
2017-Oct-16 11:30N 33°60' E 135°01'713.3
2017-Oct-16 11:00N 34°06' E 135°03'510.7
2017-Oct-16 10:30N 34°10' E 135°08'0 0.1
2017-Oct-16 10:00N 34°10' E 135°08'0 0.0
2017-Oct-16 09:30N 34°10' E 135°08'0 0.0
2017-Oct-16 09:00N 34°10' E 135°08'0 0.0
2017-Oct-16 08:24N 34°10' E 135°08'0 0.0
2017-Oct-16 08:00N 34°10' E 135°08'0 0.0
2017-Oct-16 07:30N 34°10' E 135°08'1 1.2
2017-Oct-16 07:00N 34°10' E 135°07'510.6
2017-Oct-16 06:30N 34°13' E 135°02'610.8
2017-Oct-16 06:00N 34°18' E 134°58'612.4
2017-Oct-16 05:30N 34°23' E 135°00'612.6
2017-Oct-16 05:00N 34°29' E 135°03'612.6
2017-Oct-16 04:31N 34°36' E 135°03'812.9
2017-Oct-16 03:53N 34°35' E 134°54'  
2017-Oct-13 06:02N 34°55' E 139°24'612.8
2017-Oct-13 05:33N 34°58' E 139°31'112.6
2017-Oct-13 05:29N 34°59' E 139°32'613.2
2017-Oct-13 05:00N 35°02' E 139°38'714.1
2017-Oct-13 04:30N 35°08' E 139°44'713.4
2017-Oct-13 04:00N 35°14' E 139°46'612.2
2017-Oct-13 03:30N 35°19' E 139°43'611.9
2017-Oct-13 03:00N 35°24' E 139°39'1 1.8
2017-Oct-13 02:28N 35°24' E 139°38'0 0.0
2017-Oct-13 01:58N 35°24' E 139°38'0 0.0
2017-Oct-13 01:28N 35°24' E 139°38'0 0.0
2017-Oct-13 00:58N 35°24' E 139°38'0 0.0
2017-Oct-13 00:28N 35°24' E 139°38'0 0.1
2017-Oct-12 23:58N 35°24' E 139°38'0 0.1
2017-Oct-12 23:28N 35°24' E 139°38'0 0.0
2017-Oct-12 22:58N 35°24' E 139°38'0 0.0
2017-Oct-12 22:25N 35°24' E 139°38'0 0.0
2017-Oct-12 21:58N 35°24' E 139°38'2 4.8
2017-Oct-12 21:30N 35°24' E 139°40'3 6.7
2017-Oct-12 21:00N 35°22' E 139°44'0 0.0
2017-Oct-12 20:30N 35°22' E 139°44'0 0.0
2017-Oct-12 20:00N 35°22' E 139°44'0 0.0
2017-Oct-12 19:30N 35°22' E 139°44'0 0.1
2017-Oct-12 19:00N 35°22' E 139°44'0 0.0
2017-Oct-12 18:30N 35°22' E 139°44'0 0.0
2017-Oct-12 18:00N 35°22' E 139°44'0 0.0
2017-Oct-12 17:30N 35°22' E 139°44'0 0.0
2017-Oct-12 17:00N 35°22' E 139°44'0 0.1
2017-Oct-12 16:30N 35°22' E 139°44'0 0.0
2017-Oct-12 16:00N 35°22' E 139°44'0 0.0
2017-Oct-12 15:27N 35°22' E 139°44'0 0.0
2017-Oct-12 15:00N 35°22' E 139°44'0 0.0
2017-Oct-12 14:30N 35°22' E 139°44'0 0.0
2017-Oct-12 14:00N 35°22' E 139°44'0 0.0
2017-Oct-12 13:30N 35°22' E 139°44'0 0.0
2017-Oct-12 13:00N 35°22' E 139°44'0 0.1
2017-Oct-12 12:30N 35°22' E 139°44'0 0.0
2017-Oct-12 11:54N 35°22' E 139°44'0 0.0
2017-Oct-12 11:30N 35°22' E 139°44'0 0.1
2017-Oct-12 10:57N 35°22' E 139°44'0 0.1
2017-Oct-12 10:30N 35°22' E 139°44'0 0.0
2017-Oct-12 10:00N 35°22' E 139°44'0 0.0
2017-Oct-12 09:30N 35°22' E 139°44'0 0.1
2017-Oct-12 09:00N 35°22' E 139°44'0 0.1
2017-Oct-12 08:30N 35°22' E 139°44'0 0.1
2017-Oct-12 08:00N 35°22' E 139°44'1 2.0
2017-Oct-12 07:30N 35°21' E 139°44'510.7
2017-Oct-12 07:00N 35°16' E 139°46'510.5
2017-Oct-12 06:30N 35°11' E 139°46'713.1
2017-Oct-12 06:00N 35°05' E 139°43'713.1
2017-Oct-12 05:30N 35°00' E 139°38'714.2
2017-Oct-12 05:00N 34°56' E 139°31'201 6.9
2017-Oct-10 23:56N 34°39' E 135°27'0 0.0
2017-Oct-10 21:08N 34°39' E 135°27'0 0.1
2017-Oct-10 20:57N 34°39' E 135°27'2 4.3
2017-Oct-10 20:30N 34°39' E 135°25'510.2
2017-Oct-10 20:00N 34°36' E 135°19'1 2.2
2017-Oct-10 19:23N 34°36' E 135°18'0 0.0
2017-Oct-10 18:59N 34°36' E 135°18'0 0.0
2017-Oct-10 18:29N 34°36' E 135°18'0 0.0
2017-Oct-10 17:59N 34°36' E 135°18'0 0.0
2017-Oct-10 17:29N 34°36' E 135°18'0 0.1
2017-Oct-10 17:00N 34°36' E 135°18'5 9.4
2017-Oct-10 16:30N 34°35' E 135°12'612.7
2017-Oct-10 16:00N 34°35' E 135°04'611.3
2017-Oct-10 15:30N 34°36' E 134°58'  
Track history (hours):
 
Tides and Currents Weather Stations Pressure Air Temp Water Temp Dewpoint Dewpoint Depression Visibility Wind Speed Wind Dir Waves Ship Positions

Kiyoyasumaru

Last reported at 2017-Oct-17 21:51 UTC. Time now 2017-Oct-17 22:49 UTC.
Position N 35°38' E 139°46'.

Length 148 m; draft 6.7 m.

Type: Cargo ship. MMSI: 431008495.

Date/timePositionNaut miles runAvg speedWind from/ knotsBaromVisibWave heightAir tempDewpointWater temp
2017-Oct-17 21:51N 35°38' E 139°46'1 4.0
2017-Oct-17 21:30N 35°37' E 139°46'510.8
2017-Oct-17 21:00N 35°33' E 139°50'2 4.5
2017-Oct-17 20:28N 35°34' E 139°53'5 9.8
2017-Oct-17 19:58N 35°33' E 139°59'3 0.7
2017-Oct-17 15:29N 35°32' E 140°03'3 6.2
2017-Oct-17 14:57N 35°32' E 139°59'511.4
2017-Oct-17 14:30N 35°30' E 139°53'612.2
2017-Oct-17 14:01N 35°26' E 139°48'611.8
2017-Oct-17 13:31N 35°20' E 139°45'510.9
2017-Oct-17 13:01N 35°15' E 139°47'611.8
2017-Oct-17 12:30N 35°09' E 139°46'612.7
2017-Oct-17 12:00N 35°04' E 139°42'713.3
2017-Oct-17 11:30N 34°59' E 139°37'814.2
2017-Oct-17 10:55N 34°54' E 139°28'227 9.7
2017-Oct-16 11:30N 33°60' E 135°01'713.3
2017-Oct-16 11:00N 34°06' E 135°03'510.7
2017-Oct-16 10:30N 34°10' E 135°08'0 0.1
2017-Oct-16 10:00N 34°10' E 135°08'0 0.0
2017-Oct-16 09:30N 34°10' E 135°08'0 0.0
2017-Oct-16 09:00N 34°10' E 135°08'0 0.0
2017-Oct-16 08:24N 34°10' E 135°08'0 0.0
2017-Oct-16 08:00N 34°10' E 135°08'0 0.0
2017-Oct-16 07:30N 34°10' E 135°08'1 1.2
2017-Oct-16 07:00N 34°10' E 135°07'510.6
2017-Oct-16 06:30N 34°13' E 135°02'610.8
2017-Oct-16 06:00N 34°18' E 134°58'612.4
2017-Oct-16 05:30N 34°23' E 135°00'612.6
2017-Oct-16 05:00N 34°29' E 135°03'612.6
2017-Oct-16 04:31N 34°36' E 135°03'812.9
2017-Oct-16 03:53N 34°35' E 134°54'  
2017-Oct-13 06:02N 34°55' E 139°24'612.8
2017-Oct-13 05:33N 34°58' E 139°31'112.6
2017-Oct-13 05:29N 34°59' E 139°32'613.2
2017-Oct-13 05:00N 35°02' E 139°38'714.1
2017-Oct-13 04:30N 35°08' E 139°44'713.4
2017-Oct-13 04:00N 35°14' E 139°46'612.2
2017-Oct-13 03:30N 35°19' E 139°43'611.9
2017-Oct-13 03:00N 35°24' E 139°39'1 1.8
2017-Oct-13 02:28N 35°24' E 139°38'0 0.0
2017-Oct-13 01:58N 35°24' E 139°38'0 0.0
2017-Oct-13 01:28N 35°24' E 139°38'0 0.0
2017-Oct-13 00:58N 35°24' E 139°38'0 0.0
2017-Oct-13 00:28N 35°24' E 139°38'0 0.1
2017-Oct-12 23:58N 35°24' E 139°38'0 0.1
2017-Oct-12 23:28N 35°24' E 139°38'0 0.0
2017-Oct-12 22:58N 35°24' E 139°38'0 0.0
2017-Oct-12 22:25N 35°24' E 139°38'0 0.0
2017-Oct-12 21:58N 35°24' E 139°38'2 4.8
2017-Oct-12 21:30N 35°24' E 139°40'3 6.7
2017-Oct-12 21:00N 35°22' E 139°44'0 0.0
2017-Oct-12 20:30N 35°22' E 139°44'0 0.0
2017-Oct-12 20:00N 35°22' E 139°44'0 0.0
2017-Oct-12 19:30N 35°22' E 139°44'0 0.1
2017-Oct-12 19:00N 35°22' E 139°44'0 0.0
2017-Oct-12 18:30N 35°22' E 139°44'0 0.0
2017-Oct-12 18:00N 35°22' E 139°44'0 0.0
2017-Oct-12 17:30N 35°22' E 139°44'0 0.0
2017-Oct-12 17:00N 35°22' E 139°44'0 0.1
2017-Oct-12 16:30N 35°22' E 139°44'0 0.0
2017-Oct-12 16:00N 35°22' E 139°44'0 0.0
2017-Oct-12 15:27N 35°22' E 139°44'0 0.0
2017-Oct-12 15:00N 35°22' E 139°44'0 0.0
2017-Oct-12 14:30N 35°22' E 139°44'0 0.0
2017-Oct-12 14:00N 35°22' E 139°44'0 0.0
2017-Oct-12 13:30N 35°22' E 139°44'0 0.0
2017-Oct-12 13:00N 35°22' E 139°44'0 0.1
2017-Oct-12 12:30N 35°22' E 139°44'0 0.0
2017-Oct-12 11:54N 35°22' E 139°44'0 0.0
2017-Oct-12 11:30N 35°22' E 139°44'0 0.1
2017-Oct-12 10:57N 35°22' E 139°44'0 0.1
2017-Oct-12 10:30N 35°22' E 139°44'0 0.0
2017-Oct-12 10:00N 35°22' E 139°44'0 0.0
2017-Oct-12 09:30N 35°22' E 139°44'0 0.1
2017-Oct-12 09:00N 35°22' E 139°44'0 0.1
2017-Oct-12 08:30N 35°22' E 139°44'0 0.1
2017-Oct-12 08:00N 35°22' E 139°44'1 2.0
2017-Oct-12 07:30N 35°21' E 139°44'510.7
2017-Oct-12 07:00N 35°16' E 139°46'510.5
2017-Oct-12 06:30N 35°11' E 139°46'713.1
2017-Oct-12 06:00N 35°05' E 139°43'713.1
2017-Oct-12 05:30N 35°00' E 139°38'714.2
2017-Oct-12 05:00N 34°56' E 139°31'201 6.9
2017-Oct-10 23:56N 34°39' E 135°27'0 0.0
2017-Oct-10 21:08N 34°39' E 135°27'0 0.1
2017-Oct-10 20:57N 34°39' E 135°27'2 4.3
2017-Oct-10 20:30N 34°39' E 135°25'510.2
2017-Oct-10 20:00N 34°36' E 135°19'1 2.2
2017-Oct-10 19:23N 34°36' E 135°18'0 0.0
2017-Oct-10 18:59N 34°36' E 135°18'0 0.0
2017-Oct-10 18:29N 34°36' E 135°18'0 0.0
2017-Oct-10 17:59N 34°36' E 135°18'0 0.0
2017-Oct-10 17:29N 34°36' E 135°18'0 0.1
2017-Oct-10 17:00N 34°36' E 135°18'5 9.4
2017-Oct-10 16:30N 34°35' E 135°12'612.7
2017-Oct-10 16:00N 34°35' E 135°04'611.3
2017-Oct-10 15:30N 34°36' E 134°58'  

Dump ship's entire track history